createdAt,value
2018-02-27T00:00:33.567Z,77.34
2018-02-27T00:01:33.531Z,77.34
2018-02-27T00:02:33.493Z,77.15
2018-02-27T00:03:33.454Z,77.34
2018-02-27T00:04:33.169Z,77.34
2018-02-27T00:05:33.384Z,77.44
2018-02-27T00:06:33.341Z,77.72
2018-02-27T00:07:33.056Z,77.91
2018-02-27T00:08:33.271Z,77.72
2018-02-27T00:09:33.231Z,77.62
2018-02-27T00:10:33.196Z,77.72
2018-02-27T00:11:33.390Z,77.62
2018-02-27T00:12:33.117Z,77.72
2018-02-27T00:13:32.832Z,77.72
2018-02-27T00:14:33.040Z,77.53
2018-02-27T00:15:33.003Z,77.53
2018-02-27T00:16:32.983Z,77.44
2018-02-27T00:17:32.682Z,77.44
2018-02-27T00:18:32.892Z,77.44
2018-02-27T00:19:32.609Z,77.58
2018-02-27T00:20:32.813Z,77.3
2018-02-27T00:21:32.530Z,77.49
2018-02-27T00:22:32.493Z,77.77
2018-02-27T00:23:32.704Z,77.49
2018-02-27T00:24:32.417Z,77.86
2018-02-27T00:25:32.631Z,77.67
2018-02-27T00:26:32.590Z,77.67
2018-02-27T00:27:32.551Z,77.67
2018-02-27T00:28:32.267Z,77.67
2018-02-27T00:29:32.485Z,77.58
2018-02-27T00:30:32.190Z,77.67
2018-02-27T00:31:32.403Z,77.67
2018-02-27T00:32:32.362Z,77.67
2018-02-27T00:33:32.324Z,77.58
2018-02-27T00:34:32.285Z,77.67
2018-02-27T00:35:32.253Z,77.67
2018-02-27T00:36:31.965Z,77.58
2018-02-27T00:37:32.173Z,77.67
2018-02-27T00:38:32.142Z,77.77
2018-02-27T00:39:31.851Z,77.49
2018-02-27T00:40:32.061Z,77.77
2018-02-27T00:41:31.776Z,77.67
2018-02-27T00:42:31.992Z,77.77
2018-02-27T00:43:31.952Z,77.49
2018-02-27T00:44:31.916Z,77.77
2018-02-27T00:45:31.880Z,77.77
2018-02-27T00:46:31.837Z,77.67
2018-02-27T00:47:31.798Z,77.67
2018-02-27T00:48:31.760Z,77.67
2018-02-27T00:49:31.721Z,77.67
2018-02-27T00:50:31.437Z,77.86
2018-02-27T00:51:31.647Z,77.67
2018-02-27T00:52:31.612Z,77.49
2018-02-27T00:53:31.324Z,77.67
2018-02-27T00:54:31.531Z,78.05
2018-02-27T00:55:31.494Z,77.77
2018-02-27T00:56:31.458Z,78.43
2018-02-27T00:57:31.419Z,77.96
2018-02-27T00:58:31.383Z,78.24
2018-02-27T00:59:31.346Z,77.96
2018-02-27T01:00:31.308Z,78.24
2018-02-27T01:01:31.267Z,77.86
2018-02-27T01:02:31.231Z,77.96
2018-02-27T01:03:31.192Z,78.24
2018-02-27T01:04:30.908Z,77.96
2018-02-27T01:05:31.117Z,77.86
2018-02-27T01:06:31.076Z,78.05
2018-02-27T01:07:30.795Z,77.86
2018-02-27T01:08:31.003Z,78.34
2018-02-27T01:09:30.963Z,78.24
2018-02-27T01:10:30.926Z,78.24
2018-02-27T01:11:30.889Z,78.43
2018-02-27T01:12:30.600Z,78.52
2018-02-27T01:13:30.567Z,78.81
2018-02-27T01:14:30.775Z,78.52
2018-02-27T01:15:30.741Z,78.34
2018-02-27T01:16:30.696Z,78.71
2018-02-27T01:17:30.660Z,78.71
2018-02-27T01:18:30.628Z,78.81
2018-02-27T01:19:30.581Z,79
2018-02-27T01:20:30.544Z,78.9
2018-02-27T01:21:30.510Z,78.71
2018-02-27T01:22:30.493Z,78.43
2018-02-27T01:23:30.434Z,78.62
2018-02-27T01:24:30.393Z,79.37
2018-02-27T01:25:30.355Z,78.9
2018-02-27T01:26:30.319Z,78.71
2018-02-27T01:27:30.277Z,79.09
2018-02-27T01:28:30.395Z,79.19
2018-02-27T01:29:30.231Z,78.9
2018-02-27T01:30:29.918Z,79.19
2018-02-27T01:31:29.879Z,79.28
2018-02-27T01:32:30.091Z,79.19
2018-02-27T01:33:30.055Z,79.09
2018-02-27T01:34:29.766Z,79.47
2018-02-27T01:35:29.978Z,79.37
2018-02-27T01:36:29.938Z,79.37
2018-02-27T01:37:29.652Z,79.19
2018-02-27T01:38:29.866Z,79.28
2018-02-27T01:39:29.824Z,79.28
2018-02-27T01:40:29.790Z,79.19
2018-02-27T01:41:29.754Z,79.85
2018-02-27T01:42:29.710Z,80.13
2018-02-27T01:43:29.670Z,79.85
2018-02-27T01:44:29.634Z,79.85
2018-02-27T01:45:29.350Z,79.66
2018-02-27T01:46:29.559Z,79.75
2018-02-27T01:47:29.569Z,79.75
2018-02-27T01:48:29.483Z,79.75
2018-02-27T01:49:29.444Z,79.75
2018-02-27T01:50:29.408Z,79.75
2018-02-27T01:51:29.119Z,79.56
2018-02-27T01:52:29.328Z,79.85
2018-02-27T01:53:29.294Z,79.94
2018-02-27T01:54:29.007Z,79.66
2018-02-27T01:55:29.215Z,79.85
2018-02-27T01:56:29.176Z,80.04
2018-02-27T01:57:29.138Z,80.13
2018-02-27T01:58:29.102Z,80.13
2018-02-27T01:59:28.814Z,79.85
2018-02-27T02:00:28.775Z,80.22
2018-02-27T02:01:28.988Z,80.41
2018-02-27T02:02:28.952Z,80.22
2018-02-27T02:03:28.971Z,80.51
2018-02-27T02:04:28.624Z,80.04
2018-02-27T02:05:28.833Z,80.88
2018-02-27T02:06:28.793Z,80.69
2018-02-27T02:07:28.508Z,80.79
2018-02-27T02:08:28.730Z,80.51
2018-02-27T02:09:28.430Z,80.69
2018-02-27T02:10:28.642Z,80.69
2018-02-27T02:11:28.602Z,80.51
2018-02-27T02:12:28.565Z,80.32
2018-02-27T02:13:28.525Z,80.51
2018-02-27T02:14:28.240Z,80.41
2018-02-27T02:15:28.452Z,80.69
2018-02-27T02:16:28.416Z,81.07
2018-02-27T02:17:28.375Z,81.16
2018-02-27T02:18:28.335Z,80.79
2018-02-27T02:19:28.049Z,81.26
2018-02-27T02:20:28.259Z,81.26
2018-02-27T02:21:28.223Z,80.88
2018-02-27T02:22:28.182Z,80.88
2018-02-27T02:23:27.895Z,80.88
2018-02-27T02:24:28.110Z,80.88
2018-02-27T02:25:28.067Z,81.07
2018-02-27T02:26:28.031Z,81.16
2018-02-27T02:27:27.991Z,81.07
2018-02-27T02:28:27.959Z,81.16
2018-02-27T02:29:27.913Z,81.16
2018-02-27T02:30:27.883Z,81.07
2018-02-27T02:31:27.838Z,81.16
2018-02-27T02:32:27.802Z,81.45
2018-02-27T02:33:27.514Z,81.26
2018-02-27T02:34:27.757Z,81.35
2018-02-27T02:35:27.684Z,81.45
2018-02-27T02:36:27.658Z,81.35
2018-02-27T02:37:27.611Z,81.45
2018-02-27T02:38:27.569Z,81.35
2018-02-27T02:39:27.282Z,82.1
2018-02-27T02:40:27.491Z,81.92
2018-02-27T02:41:27.453Z,81.92
2018-02-27T02:42:27.413Z,82.01
2018-02-27T02:43:27.379Z,82.01
2018-02-27T02:44:27.338Z,81.92
2018-02-27T02:45:27.051Z,81.73
2018-02-27T02:46:27.261Z,82.1
2018-02-27T02:47:27.221Z,82.01
2018-02-27T02:48:27.191Z,82.1
2018-02-27T02:49:26.899Z,82.01
2018-02-27T02:50:27.107Z,82.29
2018-02-27T02:51:26.822Z,82.48
2018-02-27T02:52:27.030Z,82.2
2018-02-27T02:53:26.743Z,82.39
2018-02-27T02:54:26.958Z,82.39
2018-02-27T02:55:26.915Z,82.39
2018-02-27T02:56:26.876Z,82.2
2018-02-27T02:57:26.590Z,82.58
2018-02-27T02:58:26.805Z,82.76
2018-02-27T02:59:26.510Z,82.48
2018-02-27T03:00:26.721Z,82.58
2018-02-27T03:01:26.683Z,82.86
2018-02-27T03:02:26.643Z,82.76
2018-02-27T03:03:26.359Z,82.86
2018-02-27T03:04:26.567Z,82.67
2018-02-27T03:05:26.529Z,82.58
2018-02-27T03:06:26.490Z,82.86
2018-02-27T03:07:26.451Z,82.86
2018-02-27T03:08:26.414Z,82.58
2018-02-27T03:09:26.375Z,82.86
2018-02-27T03:10:26.336Z,82.58
2018-02-27T03:11:26.311Z,83.24
2018-02-27T03:12:26.264Z,83.24
2018-02-27T03:13:26.227Z,83.24
2018-02-27T03:14:26.324Z,82.39
2018-02-27T03:15:26.144Z,82.39
2018-02-27T03:16:26.109Z,82.2
2018-02-27T03:17:25.819Z,82.58
2018-02-27T03:18:26.028Z,82.58
2018-02-27T03:19:25.990Z,83.14
2018-02-27T03:20:25.950Z,82.95
2018-02-27T03:21:25.910Z,83.05
2018-02-27T03:22:25.876Z,82.86
2018-02-27T03:23:25.836Z,82.76
2018-02-27T03:24:25.795Z,82.86
2018-02-27T03:25:25.757Z,82.86
2018-02-27T03:26:25.723Z,82.95
2018-02-27T03:27:25.685Z,82.92
2018-02-27T03:28:25.642Z,83.24
2018-02-27T03:29:25.602Z,83.24
2018-02-27T03:30:25.568Z,83.33
2018-02-27T03:31:25.530Z,83.1
2018-02-27T03:32:25.487Z,83.14
2018-02-27T03:33:25.458Z,83.61
2018-02-27T03:34:25.408Z,83.52
2018-02-27T03:35:25.371Z,83.52
2018-02-27T03:36:25.332Z,83.61
2018-02-27T03:37:25.293Z,83.71
2018-02-27T03:38:25.254Z,83.86
2018-02-27T03:39:25.230Z,83.61
2018-02-27T03:40:25.181Z,83.52
2018-02-27T03:41:25.139Z,83.29
2018-02-27T03:42:25.106Z,83.76
2018-02-27T03:43:25.075Z,84.33
2018-02-27T03:44:25.029Z,83.95
2018-02-27T03:45:24.982Z,84.05
2018-02-27T03:46:24.945Z,84.14
2018-02-27T03:47:24.903Z,84.14
2018-02-27T03:48:24.876Z,83.95
2018-02-27T03:49:24.826Z,84.14
2018-02-27T03:50:24.791Z,84.05
2018-02-27T03:51:24.504Z,84.52
2018-02-27T03:52:24.713Z,84.52
2018-02-27T03:53:24.680Z,84.23
2018-02-27T03:54:24.643Z,84.23
2018-02-27T03:55:24.596Z,84.7
2018-02-27T03:56:24.564Z,84.42
2018-02-27T03:57:24.520Z,84.61
2018-02-27T03:58:24.232Z,84.42
2018-02-27T03:59:24.443Z,84.61
2018-02-27T04:00:24.401Z,84.52
2018-02-27T04:01:24.405Z,84.61
2018-02-27T04:02:24.077Z,84.52
2018-02-27T04:03:24.286Z,84.99
2018-02-27T04:04:24.246Z,84.61
2018-02-27T04:05:24.209Z,84.52
2018-02-27T04:06:24.167Z,84.89
2018-02-27T04:07:24.129Z,85.08
2018-02-27T04:08:24.093Z,85.08
2018-02-27T04:09:23.805Z,84.7
2018-02-27T04:10:23.765Z,84.89
2018-02-27T04:11:23.975Z,84.99
2018-02-27T04:12:23.936Z,84.99
2018-02-27T04:13:23.912Z,84.8
2018-02-27T04:14:23.860Z,84.8
2018-02-27T04:15:23.820Z,84.89
2018-02-27T04:16:23.779Z,84.89
2018-02-27T04:17:23.742Z,84.52
2018-02-27T04:18:23.743Z,84.7
2018-02-27T04:19:23.664Z,84.52
2018-02-27T04:20:23.625Z,84.52
2018-02-27T04:21:23.587Z,84.99
2018-02-27T04:22:23.546Z,84.7
2018-02-27T04:23:23.512Z,84.61
2018-02-27T04:24:23.471Z,84.99
2018-02-27T04:25:23.433Z,85.17
2018-02-27T04:26:23.390Z,84.99
2018-02-27T04:27:23.358Z,84.7
2018-02-27T04:28:23.325Z,84.99
2018-02-27T04:29:23.027Z,85.17
2018-02-27T04:30:22.987Z,85.17
2018-02-27T04:31:23.197Z,84.99
2018-02-27T04:32:23.159Z,85.08
2018-02-27T04:33:23.119Z,85.55
2018-02-27T04:34:23.079Z,85.55
2018-02-27T04:35:23.041Z,85.36
2018-02-27T04:36:22.999Z,85.46
2018-02-27T04:37:22.967Z,85.17
2018-02-27T04:38:22.923Z,85.17
2018-02-27T04:39:22.886Z,85.64
2018-02-27T04:40:22.847Z,85.55
2018-02-27T04:41:22.807Z,85.83
2018-02-27T04:42:22.765Z,85.46
2018-02-27T04:43:22.728Z,85.46
2018-02-27T04:44:22.687Z,85.55
2018-02-27T04:45:22.652Z,85.55
2018-02-27T04:46:22.611Z,85.74
2018-02-27T04:47:22.575Z,85.46
2018-02-27T04:48:22.537Z,85.36
2018-02-27T04:49:22.492Z,85.36
2018-02-27T04:50:22.453Z,85.55
2018-02-27T04:51:22.415Z,85.46
2018-02-27T04:52:22.377Z,85.36
2018-02-27T04:53:22.089Z,85.74
2018-02-27T04:54:22.297Z,85.83
2018-02-27T04:55:22.258Z,85.74
2018-02-27T04:56:22.218Z,85.83
2018-02-27T04:57:22.179Z,85.83
2018-02-27T04:58:22.142Z,85.93
2018-02-27T04:59:22.105Z,85.83
2018-02-27T05:00:22.072Z,85.64
2018-02-27T05:01:22.024Z,85.74
2018-02-27T05:02:21.986Z,85.64
2018-02-27T05:03:21.945Z,85.74
2018-02-27T05:04:21.922Z,85.74
2018-02-27T05:05:21.868Z,85.74
2018-02-27T05:06:21.828Z,85.64
2018-02-27T05:07:21.789Z,85.64
2018-02-27T05:08:21.749Z,85.64
2018-02-27T05:09:21.711Z,85.64
2018-02-27T05:10:21.670Z,85.64
2018-02-27T05:11:21.384Z,85.74
2018-02-27T05:12:21.592Z,86.3
2018-02-27T05:13:21.553Z,86.02
2018-02-27T05:14:21.524Z,86.11
2018-02-27T05:15:21.630Z,86.11
2018-02-27T05:16:21.219Z,86.21
2018-02-27T05:17:22.250Z,86.3
2018-02-27T05:18:21.358Z,86.11
2018-02-27T05:19:21.071Z,86.02
2018-02-27T05:20:21.287Z,86.21
2018-02-27T05:21:21.238Z,86.11
2018-02-27T05:22:21.202Z,86.49
2018-02-27T05:23:21.163Z,86.21
2018-02-27T05:24:21.124Z,86.49
2018-02-27T05:25:21.091Z,86.02
2018-02-27T05:26:21.047Z,86.77
2018-02-27T05:27:21.007Z,86.77
2018-02-27T05:28:20.966Z,86.59
2018-02-27T05:29:20.971Z,86.68
2018-02-27T05:30:20.892Z,86.49
2018-02-27T05:31:20.851Z,86.77
2018-02-27T05:32:20.810Z,86.77
2018-02-27T05:33:20.774Z,87.15
2018-02-27T05:34:20.744Z,86.77
2018-02-27T05:35:20.691Z,86.68
2018-02-27T05:36:20.650Z,86.87
2018-02-27T05:37:20.614Z,86.59
2018-02-27T05:38:20.578Z,86.59
2018-02-27T05:39:20.286Z,86.96
2018-02-27T05:40:20.493Z,86.96
2018-02-27T05:41:20.454Z,86.96
2018-02-27T05:42:20.418Z,86.87
2018-02-27T05:43:20.130Z,87.06
2018-02-27T05:44:20.338Z,87.25
2018-02-27T05:45:20.679Z,87.15
2018-02-27T05:46:20.169Z,87.62
2018-02-27T05:47:20.224Z,87.15
2018-02-27T05:48:20.182Z,87.15
2018-02-27T05:49:19.894Z,87.25
2018-02-27T05:50:19.856Z,87.25
2018-02-27T05:51:19.815Z,87.34
2018-02-27T05:52:20.028Z,87.91
2018-02-27T05:53:19.985Z,87.72
2018-02-27T05:54:19.962Z,87.72
2018-02-27T05:55:19.904Z,87.72
2018-02-27T05:56:19.620Z,87.53
2018-02-27T05:57:19.828Z,87.44
2018-02-27T05:58:19.789Z,87.34
2018-02-27T05:59:19.793Z,87.34
2018-02-27T06:00:19.713Z,87.53
2018-02-27T06:01:19.680Z,87.34
2018-02-27T06:02:19.634Z,87.91
2018-02-27T06:03:19.595Z,87.91
2018-02-27T06:04:19.306Z,87.62
2018-02-27T06:05:19.266Z,87.81
2018-02-27T06:06:19.475Z,88.1
2018-02-27T06:07:19.435Z,88.1
2018-02-27T06:08:19.395Z,88
2018-02-27T06:09:19.358Z,88
2018-02-27T06:10:19.071Z,87.72
2018-02-27T06:11:19.282Z,87.91
2018-02-27T06:12:19.238Z,88
2018-02-27T06:13:19.203Z,88.1
2018-02-27T06:14:19.160Z,88.66
2018-02-27T06:15:19.122Z,88.57
2018-02-27T06:16:19.086Z,88.76
2018-02-27T06:17:19.044Z,88.47
2018-02-27T06:18:19.002Z,88.28
2018-02-27T06:19:18.978Z,88.57
2018-02-27T06:20:19.887Z,88.95
2018-02-27T06:21:19.369Z,89.13
2018-02-27T06:22:20.100Z,88.76
2018-02-27T06:23:20.087Z,88.95
2018-02-27T06:24:18.528Z,88.76
2018-02-27T06:25:18.729Z,88.76
2018-02-27T06:26:18.693Z,88.95
2018-02-27T06:27:18.664Z,88.95
2018-02-27T06:28:18.614Z,88.47
2018-02-27T06:29:18.578Z,88.57
2018-02-27T06:30:18.533Z,88.85
2018-02-27T06:31:18.536Z,88.38
2018-02-27T06:32:18.649Z,88.57
2018-02-27T06:33:18.417Z,88.47
2018-02-27T06:34:18.376Z,88.38
2018-02-27T06:35:18.338Z,88.57
2018-02-27T06:36:18.299Z,88.95
2018-02-27T06:37:18.295Z,88.85
2018-02-27T06:38:18.231Z,88.57
2018-02-27T06:39:18.181Z,89.04
2018-02-27T06:40:18.142Z,88.76
2018-02-27T06:41:18.105Z,88.85
2018-02-27T06:42:18.065Z,88.57
2018-02-27T06:43:18.024Z,88.76
2018-02-27T06:44:17.985Z,88.76
2018-02-27T06:45:17.949Z,88.28
2018-02-27T06:46:17.910Z,88.47
2018-02-27T06:47:17.932Z,88.57
2018-02-27T06:48:17.829Z,88.95
2018-02-27T06:49:17.788Z,88.95
2018-02-27T06:50:17.749Z,88.95
2018-02-27T06:51:17.710Z,88.95
2018-02-27T06:52:17.672Z,88.47
2018-02-27T06:53:17.634Z,88.95
2018-02-27T06:54:17.596Z,88.38
2018-02-27T06:55:17.661Z,88.28
2018-02-27T06:56:17.516Z,88.76
2018-02-27T06:57:17.478Z,88.38
2018-02-27T06:58:17.436Z,88.95
2018-02-27T06:59:17.398Z,88.85
2018-02-27T07:00:17.360Z,89.04
2018-02-27T07:01:17.322Z,88.85
2018-02-27T07:02:17.281Z,88.95
2018-02-27T07:03:16.997Z,88.85
2018-02-27T07:04:17.204Z,88.95
2018-02-27T07:05:17.164Z,89.04
2018-02-27T07:06:17.147Z,88.76
2018-02-27T07:07:17.088Z,88.66
2018-02-27T07:08:17.049Z,88.76
2018-02-27T07:09:17.011Z,89.04
2018-02-27T07:10:17.054Z,88.76
2018-02-27T07:11:16.684Z,88.76
2018-02-27T07:12:16.894Z,88.76
2018-02-27T07:13:16.856Z,88.66
2018-02-27T07:14:16.816Z,88.85
2018-02-27T07:15:16.533Z,89.04
2018-02-27T07:16:16.740Z,89.13
2018-02-27T07:17:16.705Z,88.28
2018-02-27T07:18:16.660Z,88.95
2018-02-27T07:19:16.374Z,88.95
2018-02-27T07:20:16.588Z,88.38
2018-02-27T07:21:16.546Z,88.38
2018-02-27T07:22:16.508Z,88.28
2018-02-27T07:23:16.469Z,88.66
2018-02-27T07:24:16.182Z,88.76
2018-02-27T07:25:16.390Z,88.57
2018-02-27T07:26:16.357Z,88.95
2018-02-27T07:27:16.325Z,88.95
2018-02-27T07:28:16.275Z,88.66
2018-02-27T07:29:16.240Z,88.57
2018-02-27T07:30:15.950Z,88.76
2018-02-27T07:31:16.163Z,88.66
2018-02-27T07:32:16.124Z,88.76
2018-02-27T07:33:15.833Z,88.38
2018-02-27T07:34:16.048Z,88.28
2018-02-27T07:35:16.021Z,88.38
2018-02-27T07:36:15.967Z,88.19
2018-02-27T07:37:15.936Z,88.99
2018-02-27T07:38:15.893Z,88.85
2018-02-27T07:39:15.856Z,88.38
2018-02-27T07:40:15.566Z,88.76
2018-02-27T07:41:15.783Z,88.28
2018-02-27T07:42:15.738Z,88.47
2018-02-27T07:43:15.449Z,88.28
2018-02-27T07:44:15.661Z,88.47
2018-02-27T07:45:15.672Z,88.42
2018-02-27T07:46:15.336Z,88.52
2018-02-27T07:47:15.697Z,88.23
2018-02-27T07:48:15.259Z,88.42
2018-02-27T07:49:15.470Z,88.52
2018-02-27T07:50:15.433Z,88.61
2018-02-27T07:51:15.398Z,88.71
2018-02-27T07:52:15.356Z,88.33
2018-02-27T07:53:15.070Z,87.95
2018-02-27T07:54:15.278Z,88.04
2018-02-27T07:55:15.242Z,87.86
2018-02-27T07:56:15.207Z,87.76
2018-02-27T07:57:15.166Z,87.86
2018-02-27T07:58:15.233Z,87.86
2018-02-27T07:59:15.841Z,87.67
2018-02-27T08:00:15.213Z,87.86
2018-02-27T08:01:15.480Z,88.04
2018-02-27T08:02:14.975Z,87.57
2018-02-27T08:03:14.937Z,87.19
2018-02-27T08:04:15.078Z,87.38
2018-02-27T08:05:15.154Z,87.38
2018-02-27T08:06:14.772Z,87.19
2018-02-27T08:07:14.977Z,87.29
2018-02-27T08:08:14.767Z,87.01
2018-02-27T08:09:14.716Z,87.38
2018-02-27T08:10:14.677Z,86.82
2018-02-27T08:11:14.636Z,86.44
2018-02-27T08:12:14.598Z,86.54
2018-02-27T08:13:14.312Z,86.44
2018-02-27T08:14:14.274Z,86.54
2018-02-27T08:15:14.489Z,86.16
2018-02-27T08:16:14.537Z,85.97
2018-02-27T08:17:14.414Z,86.07
2018-02-27T08:18:14.378Z,85.31
2018-02-27T08:19:14.339Z,85.5
2018-02-27T08:20:14.304Z,85.6
2018-02-27T08:21:14.017Z,84.84
2018-02-27T08:22:14.231Z,84.75
2018-02-27T08:23:14.196Z,84.47
2018-02-27T08:24:14.155Z,84.28
2018-02-27T08:25:14.120Z,83.99
2018-02-27T08:26:14.084Z,83.99
2018-02-27T08:27:14.045Z,84.18
2018-02-27T08:28:14.014Z,83.61
2018-02-27T08:29:13.973Z,83.52
2018-02-27T08:30:13.938Z,83.24
2018-02-27T08:31:13.921Z,83.52
2018-02-27T08:32:13.864Z,83.14
2018-02-27T08:33:13.827Z,82.86
2018-02-27T08:34:13.544Z,82.48
2018-02-27T08:35:13.756Z,83.24
2018-02-27T08:36:13.721Z,82.58
2018-02-27T08:37:13.683Z,82.67
2018-02-27T08:38:13.397Z,82.58
2018-02-27T08:39:13.609Z,82.1
2018-02-27T08:40:13.324Z,81.73
2018-02-27T08:41:13.770Z,81.26
2018-02-27T08:42:13.250Z,80.88
2018-02-27T08:43:13.463Z,80.79
2018-02-27T08:44:13.227Z,80.32
2018-02-27T08:45:13.140Z,80.32
2018-02-27T08:46:13.353Z,80.04
2018-02-27T08:47:13.063Z,79.75
2018-02-27T08:48:13.277Z,79.56
2018-02-27T08:49:13.238Z,79.56
2018-02-27T08:50:13.203Z,79.47
2018-02-27T08:51:13.168Z,78.62
2018-02-27T08:52:13.136Z,78.43
2018-02-27T08:53:12.842Z,78.15
2018-02-27T08:54:12.806Z,78.05
2018-02-27T08:55:13.019Z,77.39
2018-02-27T08:56:13.050Z,77.2
2018-02-27T08:57:12.947Z,77.01
2018-02-27T08:58:12.680Z,76.73
2018-02-27T08:59:12.876Z,76.45
2018-02-27T09:00:12.833Z,75.79
2018-02-27T09:01:12.803Z,75.98
2018-02-27T09:02:12.763Z,75.51
2018-02-27T09:03:12.480Z,75.32
2018-02-27T09:04:12.687Z,75.6
2018-02-27T09:05:12.669Z,75.13
2018-02-27T09:06:12.615Z,74.85
2018-02-27T09:07:12.582Z,75.26
2018-02-27T09:08:12.584Z,75.04
2018-02-27T09:09:12.511Z,75.07
2018-02-27T09:10:12.466Z,74.6
2018-02-27T09:11:12.430Z,74.1
2018-02-27T09:12:12.567Z,74.38
2018-02-27T09:13:12.111Z,74.32
2018-02-27T09:14:12.322Z,74.69
2018-02-27T09:15:12.286Z,74.22
2018-02-27T09:16:12.253Z,74.41
2018-02-27T09:17:12.212Z,74.04
2018-02-27T09:18:12.182Z,74.13
2018-02-27T09:19:12.300Z,74.04
2018-02-27T09:20:12.184Z,73.57
2018-02-27T09:21:12.065Z,73.28
2018-02-27T09:22:12.032Z,72.72
2018-02-27T09:23:11.992Z,71.87
2018-02-27T09:24:11.706Z,71.58
2018-02-27T09:25:11.921Z,71.4
2018-02-27T09:26:11.889Z,71.77
2018-02-27T09:27:11.848Z,71.58
2018-02-27T09:28:11.812Z,70.92
2018-02-27T09:29:11.776Z,71.11
2018-02-27T09:30:11.748Z,70.45
2018-02-27T09:31:11.701Z,70.07
2018-02-27T09:32:11.663Z,70.26
2018-02-27T09:33:11.632Z,70.45
2018-02-27T09:34:11.345Z,69.7
2018-02-27T09:35:11.556Z,69.7
2018-02-27T09:36:11.522Z,69.6
2018-02-27T09:37:11.484Z,69.89
2018-02-27T09:38:11.793Z,69.51
2018-02-27T09:39:11.443Z,69.32
2018-02-27T09:40:11.380Z,68.85
2018-02-27T09:41:11.089Z,68.85
2018-02-27T09:42:11.052Z,68.85
2018-02-27T09:43:11.265Z,68.57
2018-02-27T09:44:11.233Z,68.47
2018-02-27T09:45:11.194Z,68.19
2018-02-27T09:46:11.162Z,68.19
2018-02-27T09:47:11.124Z,68.19
2018-02-27T09:48:11.087Z,68.29
2018-02-27T09:49:11.047Z,68.1
2018-02-27T09:50:10.765Z,67.91
2018-02-27T09:51:10.976Z,67.91
2018-02-27T09:52:11.027Z,67.91
2018-02-27T09:53:10.904Z,67.72
2018-02-27T09:54:10.870Z,67.62
2018-02-27T09:55:10.832Z,67.81
2018-02-27T09:56:10.797Z,67.91
2018-02-27T09:57:10.762Z,67.43
2018-02-27T09:58:10.725Z,67.53
2018-02-27T09:59:10.686Z,67.15
2018-02-27T10:00:10.656Z,66.87
2018-02-27T10:01:10.369Z,66.58
2018-02-27T10:02:10.582Z,66.87
2018-02-27T10:03:10.546Z,66.58
2018-02-27T10:04:10.510Z,66.21
2018-02-27T10:05:10.476Z,66.11
2018-02-27T10:06:10.190Z,65.55
2018-02-27T10:07:10.400Z,65.64
2018-02-27T10:08:10.368Z,65.55
2018-02-27T10:09:10.331Z,65.55
2018-02-27T10:10:10.291Z,65.36
2018-02-27T10:11:10.263Z,64.83
2018-02-27T10:12:10.225Z,64.17
2018-02-27T10:13:09.937Z,64.26
2018-02-27T10:14:10.152Z,63.98
2018-02-27T10:15:09.870Z,63.7
2018-02-27T10:16:10.121Z,63.51
2018-02-27T10:17:10.089Z,63.6
2018-02-27T10:18:10.012Z,63.7
2018-02-27T10:19:09.974Z,63.32
2018-02-27T10:20:09.939Z,63.7
2018-02-27T10:21:09.903Z,63.98
2018-02-27T10:22:09.919Z,63.41
2018-02-27T10:23:09.833Z,63.51
2018-02-27T10:24:09.798Z,63.6
2018-02-27T10:25:09.761Z,63.51
2018-02-27T10:26:09.725Z,63.6
2018-02-27T10:27:09.694Z,63.7
2018-02-27T10:28:09.656Z,63.6
2018-02-27T10:29:09.775Z,62.84
2018-02-27T10:30:09.586Z,62.84
2018-02-27T10:31:09.554Z,62.84
2018-02-27T10:32:09.517Z,62.75
2018-02-27T10:33:09.480Z,62.75
2018-02-27T10:34:09.450Z,62.75
2018-02-27T10:35:09.162Z,62.84
2018-02-27T10:36:09.372Z,62.84
2018-02-27T10:37:09.343Z,62.47
2018-02-27T10:38:09.308Z,62.84
2018-02-27T10:39:09.298Z,63.13
2018-02-27T10:40:09.420Z,62.66
2018-02-27T10:41:09.203Z,62.75
2018-02-27T10:42:09.169Z,62.56
2018-02-27T10:43:09.134Z,62.84
2018-02-27T10:44:09.099Z,62.66
2018-02-27T10:45:08.822Z,62.66
2018-02-27T10:46:09.032Z,62.18
2018-02-27T10:47:08.998Z,62.18
2018-02-27T10:48:08.967Z,62.18
2018-02-27T10:49:08.930Z,62.09
2018-02-27T10:50:09.481Z,62.28
2018-02-27T10:51:09.273Z,61.99
2018-02-27T10:52:09.860Z,61.99
2018-02-27T10:53:08.894Z,61.33
2018-02-27T10:54:08.759Z,61.05
2018-02-27T10:55:08.724Z,61.15
2018-02-27T10:56:08.439Z,61.33
2018-02-27T10:57:08.650Z,61.05
2018-02-27T10:58:08.616Z,61.33
2018-02-27T10:59:08.583Z,61.05
2018-02-27T11:00:08.303Z,60.49
2018-02-27T11:01:08.262Z,60.11
2018-02-27T11:02:08.393Z,60.02
2018-02-27T11:03:08.555Z,59.64
2018-02-27T11:04:08.406Z,59.92
2018-02-27T11:05:08.369Z,59.64
2018-02-27T11:06:08.334Z,59.07
2018-02-27T11:07:08.925Z,59.35
2018-02-27T11:08:08.018Z,59.26
2018-02-27T11:09:07.982Z,59.17
2018-02-27T11:10:07.947Z,59.26
2018-02-27T11:11:08.377Z,59.17
2018-02-27T11:12:08.103Z,58.98
2018-02-27T11:13:08.296Z,59.07
2018-02-27T11:14:08.223Z,58.88
2018-02-27T11:15:08.916Z,59.07
2018-02-27T11:16:08.710Z,58.6
2018-02-27T11:17:08.189Z,58.79
2018-02-27T11:18:08.495Z,58.79
2018-02-27T11:19:08.557Z,58.69
2018-02-27T11:20:07.936Z,58.88
2018-02-27T11:21:08.024Z,58.79
2018-02-27T11:22:08.246Z,58.5
2018-02-27T11:23:07.872Z,58.34
2018-02-27T11:24:08.106Z,58.25
2018-02-27T11:25:07.905Z,58.53
2018-02-27T11:26:07.396Z,58.63
2018-02-27T11:27:07.611Z,58.72
2018-02-27T11:28:07.577Z,58.25
2018-02-27T11:29:07.541Z,58.25
2018-02-27T11:30:07.509Z,57.87
2018-02-27T11:31:07.223Z,57.59
2018-02-27T11:32:07.560Z,57.21
2018-02-27T11:33:07.309Z,56.84
2018-02-27T11:34:08.252Z,56.93
2018-02-27T11:35:07.597Z,57.12
2018-02-27T11:36:07.321Z,57.21
2018-02-27T11:37:07.025Z,57.21
2018-02-27T11:38:06.988Z,57.4
2018-02-27T11:39:06.956Z,57.4
2018-02-27T11:40:07.422Z,56.93
2018-02-27T11:41:07.344Z,56.74
2018-02-27T11:42:07.098Z,56.65
2018-02-27T11:43:07.067Z,56.55
2018-02-27T11:44:07.030Z,56.74
2018-02-27T11:45:06.998Z,56.84
2018-02-27T11:46:06.716Z,56.65
2018-02-27T11:47:06.937Z,57.03
2018-02-27T11:48:06.920Z,56.84
2018-02-27T11:49:07.002Z,56.93
2018-02-27T11:50:06.977Z,56.65
2018-02-27T11:51:07.161Z,56.55
2018-02-27T11:52:07.205Z,56.84
2018-02-27T11:53:07.080Z,56.84
2018-02-27T11:54:07.370Z,56.84
2018-02-27T11:55:07.863Z,56.46
2018-02-27T11:56:06.951Z,56.17
2018-02-27T11:57:07.872Z,56.17
2018-02-27T11:58:06.566Z,55.8
2018-02-27T11:59:06.539Z,55.89
2018-02-27T12:00:06.499Z,55.7
2018-02-27T12:01:06.469Z,55.89
2018-02-27T12:02:06.436Z,56.46
2018-02-27T12:03:06.624Z,55.82
2018-02-27T12:04:06.372Z,56.01
2018-02-27T12:05:06.593Z,56.01
2018-02-27T12:06:06.304Z,55.63
2018-02-27T12:07:06.269Z,55.63
2018-02-27T12:08:06.240Z,55.54
2018-02-27T12:09:06.208Z,55.73
2018-02-27T12:10:06.181Z,55.54
2018-02-27T12:11:06.140Z,55.54
2018-02-27T12:12:06.655Z,55.73
2018-02-27T12:13:06.082Z,55.26
2018-02-27T12:14:06.043Z,55.16
2018-02-27T12:15:05.764Z,54.6
2018-02-27T12:16:05.735Z,54.88
2018-02-27T12:17:05.953Z,54.6
2018-02-27T12:18:05.930Z,54.69
2018-02-27T12:19:06.470Z,54.79
2018-02-27T12:20:05.614Z,54.79
2018-02-27T12:21:05.830Z,54.79
2018-02-27T12:22:05.549Z,54.88
2018-02-27T12:23:05.773Z,54.69
2018-02-27T12:24:05.737Z,54.88
2018-02-27T12:25:05.459Z,54.5
2018-02-27T12:26:05.690Z,54.69
2018-02-27T12:27:05.649Z,54.6
2018-02-27T12:28:05.621Z,54.62
2018-02-27T12:29:05.592Z,54.53
2018-02-27T12:30:05.567Z,53.96
2018-02-27T12:31:05.532Z,53.77
2018-02-27T12:32:05.499Z,54.06
2018-02-27T12:33:05.471Z,53.58
2018-02-27T12:34:05.444Z,53.77
2018-02-27T12:35:05.166Z,53.68
2018-02-27T12:36:05.398Z,53.77
2018-02-27T12:37:05.354Z,53.3
2018-02-27T12:38:05.327Z,53.2
2018-02-27T12:39:05.406Z,53.2
2018-02-27T12:40:05.021Z,53.49
2018-02-27T12:41:05.241Z,53.2
2018-02-27T12:42:05.214Z,52.92
2018-02-27T12:43:04.934Z,53.77
2018-02-27T12:44:05.155Z,53.96
2018-02-27T12:45:05.132Z,54.06
2018-02-27T12:46:05.101Z,54.34
2018-02-27T12:47:05.067Z,54.44
2018-02-27T12:48:05.046Z,54.81
2018-02-27T12:49:05.110Z,54.79
2018-02-27T12:50:05.184Z,54.88
2018-02-27T12:51:04.948Z,54.69
2018-02-27T12:52:04.917Z,55.16
2018-02-27T12:53:04.890Z,55.26
2018-02-27T12:54:04.857Z,56.01